Anza Borrego Desert Research Center, California Weather observations

Data are for 10 minute period ending at time listed.
 Day   Time   Solar   Ave.   Ave.  Ave.  Vector  Max.   Baro.   Total    
  of    of     Rad.   Air    Rel.  Wind   Wind   Wind  Press.  Precip.   
Year   Day            Temp.  Hum.  Speed  Dir.   Gust                    
2014   (PST)  Kw/m2    F      %     mph   deg.    mph    mb.     in.     
-------------------------------------------------------------------------
 324   19:20   0.00   66.7    45    4.5   260     9.9   501.8    0.00 
 324   19:30   0.00   65.1    46    6.4   178     8.6   501.8    0.00 
 324   19:40   0.00   64.8    43    7.3   161    11.2   501.8    0.00 
 324   19:50   0.00   65.3    46    6.0   184    10.4   501.8    0.00 
 324   20:00   0.00   65.8    46    3.8   222    10.0   501.8    0.00 
 324   20:10   0.00   65.0    46    2.2   272     4.3   501.8    0.00 
 324   20:20   0.00   63.5    48    3.1   228     5.0   501.8    0.00 
 324   20:30   0.00   63.8    48    3.2   263     4.6   501.8    0.00 
 324   20:40   0.00   63.3    48    3.6   344     5.6   501.8    0.00 
 324   20:50   0.00   63.4    49    3.1   352     3.9   501.8    0.00 
 324   21:00   0.00   62.6    49    2.1   348     2.9   501.8    0.00 
 324   21:10   0.00   61.1    51    1.2   319     2.2   501.8    0.00 
 324   21:20   0.00   61.1    52    0.5   251     1.8   501.8    0.00 
 324   21:30   0.00   61.8    52    0.7   298     2.0   501.8    0.00 
 324   21:40   0.00   60.7    51    2.4   163     4.2   501.8    0.00 
 324   21:50   0.00   60.9    53    3.6   161     4.5   501.8    0.00 
 324   22:00   0.00   61.2    53    4.7   185     6.4   501.8    0.00 
 324   22:10   0.00   61.9    52    5.1   182     5.8   501.8    0.00 
 324   22:20   0.00   61.6    53    2.6   180     5.0   501.8    0.00 
 324   22:30   0.00   61.6    53    3.5   166     4.8   501.8    0.00 
 324   22:40   0.00   61.1    53    1.5    84     2.8   501.8    0.00 
 324   22:50   0.00   62.0    52    0.9   147     3.8   501.8    0.00 
 324   23:00   0.00   61.7    52    2.4   214     4.6   501.8    0.00 
 324   23:10   0.00   61.4    52    1.5   344     2.4   501.8    0.00 
 324   23:20   0.00   61.6    52    3.0    98     3.9   501.8    0.00 
 324   23:30   0.00   61.6    52    3.5   106     4.9   501.8    0.00 
 324   23:40   0.00   61.5    53    5.1   108     7.6   501.8    0.00 
 324   23:50   0.00   62.7    51    5.6   117     7.3   501.8    0.00 
 325    0:00   0.00   62.0    51    2.8   235     5.5   501.8    0.00 
 325    0:10   0.00   62.3    51    1.5    80     3.4   501.8    0.00 
 325    0:20   0.00   62.2    51    3.1    35     5.2   501.8    0.00 
 325    0:30   0.00   61.2    52    1.8   315     3.8   501.7    0.00 
 325    0:40   0.00   60.3    53    3.9   218     6.1   501.7    0.00 
 325    0:50   0.00   59.3    54    2.4   232     3.9   501.7    0.00 
 325    1:00   0.00   57.9    57    2.5   286     3.9   501.7    0.00 
 325    1:10   0.00   58.6    56    3.2   274     4.8   501.7    0.00 
 325    1:20   0.00   59.3    55    6.3   202     8.6   501.7    0.00 
 325    1:30   0.00   60.1    53    3.9   198     6.9   501.7    0.00 
 325    1:40   0.00   62.4    53    7.6   205    12.8   501.7    0.00 
 325    1:50   0.00   62.8    52    3.5   254     7.9   501.7    0.00 
 325    2:00   0.00   62.0    53    3.4   231     5.0   501.7    0.00 
 325    2:10   0.00   62.1    52    6.3   222    10.8   501.7    0.00 
 325    2:20   0.00   61.6    52    2.4   296     4.7   501.7    0.00 
 325    2:30   0.00   59.3    56    4.8   101     7.7   501.7    0.00 
 325    2:40   0.00   59.4    56    6.6    75     9.5   501.7    0.00 
 325    2:50   0.00   59.4    57    5.3    87     8.4   501.7    0.00 
 325    3:00   0.00   60.1    55    6.5   111     8.7   501.7    0.00 
 325    3:10   0.00   60.7    54    7.4    96    10.8   501.7    0.00 
 325    3:20   0.00   61.2    52    5.5    79     9.2   501.7    0.00 
 325    3:30   0.00   60.2    54    4.9    76    10.2   501.7    0.00 
 325    3:40   0.00   59.9    54    2.8   287     6.1   501.7    0.00 
 325    3:50   0.00   59.0    56    5.4   247     8.3   501.7    0.00 
 325    4:00   0.00   58.6    56    7.0   236     8.7   501.7    0.00 
 325    4:10   0.00   58.1    57    5.4   211     7.7   501.7    0.00 
 325    4:20   0.00   59.7    54    6.8   185     9.8   501.7    0.00 
 325    4:30   0.00   60.6    52    4.8   193     7.0   501.7    0.00 
 325    4:40   0.00   60.5    52    4.0   160     7.7   501.7    0.00 
 325    4:50   0.00   60.0    54    4.9    49     8.0   501.7    0.00 
 325    5:00   0.00   59.6    56    4.5   171     6.0   501.7    0.00 
 325    5:10   0.00   59.3    58    5.1   215     9.2   501.7    0.00 
 325    5:20   0.00   58.5    66    3.0   188     6.4   501.7    0.00 
 325    5:30   0.00   58.7    62    2.4   295     4.7   501.7    0.00 
 325    5:40   0.00   58.5    67    2.8    17     5.8   501.7    0.01 
 325    5:50   0.00   57.4    74    3.1   146     5.0   501.7    0.00 
 325    6:00   0.00   56.1    79    4.5   217     6.6   501.7    0.00 
 325    6:10   0.00   56.8    74    2.8   353     8.4   501.7    0.00 
 325    6:20   0.00   58.3    66    4.6   283     8.3   501.7    0.01 
 325    6:30   0.00   57.6    68    4.5   245     7.3   501.7    0.01 
 325    6:40   0.00   57.5    66    1.3     0     4.3   501.6    0.00 
 325    6:50   0.01   58.5    63    2.7   118     6.5   501.6    0.00 
 325    7:00   0.01   59.2    59    9.5   285    15.8   501.6    0.00 
 325    7:10   0.03   60.1    57    9.2   240    16.4   501.7    0.00 
 325    7:20   0.04   57.7    70    6.2   228    11.5   501.7    0.01 
 325    7:30   0.05   58.1    65    1.8    58     4.4   501.6    0.00 
 325    7:40   0.04   58.2    64    2.6    56     5.9   501.6    0.00 
 325    7:50   0.13   57.6    70    2.4   197     4.2   501.6    0.00 
 325    8:00   0.21   61.9    58    0.8   108     1.8   501.7    0.00 
 325    8:10   0.24   65.2    53    1.1   198     2.7   501.7    0.00 
 325    8:20   0.28   65.9    50    2.4   200     4.8   501.8    0.00 
 325    8:30   0.31   65.0    50    3.4   153     5.8   501.8    0.00 
 325    8:40   0.34   63.0    55    4.4    62     6.3   501.8    0.00 
 325    8:50   0.36   63.3    53    1.9    41     3.5   501.8    0.00 
 325    9:00   0.39   64.8    50    1.4   284     3.9   501.8    0.00 
 325    9:10   0.41   64.9    49    3.8   244     5.6   501.8    0.00 
 325    9:20   0.44   64.8    49    3.5   201     6.0   501.8    0.00 
 325    9:30   0.45   65.6    48    3.4   154     5.4   501.8    0.00 
 325    9:40   0.43   65.5    47    3.1   192     8.8   501.8    0.00 
 325    9:50   0.50   66.5    47    2.8   164     5.8   501.8    0.00 
 325   10:00   0.52   67.5    44    3.1   157     5.9   501.8    0.00 
 325   10:10   0.53   67.6    44    2.0   145     4.2   501.8    0.00 
 325   10:20   0.55   68.0    43    2.8   131     5.6   501.8    0.00 
 325   10:30   0.56   67.8    44    3.7   174     7.2   501.8    0.00 
 325   10:40   0.57   68.1    43    4.0   179     6.9   501.8    0.00 
 325   10:50   0.58   69.5    40    2.6   190     5.6   501.8    0.00 
 325   11:00   0.59   69.2    39    2.6   157     5.5   501.8    0.00 
 325   11:10   0.60   69.1    39    4.5   123     7.5   501.8    0.00 
 325   11:20   0.60   69.4    39    5.2   144     9.2   501.8    0.00 
 325   11:30   0.60   70.0    39    6.1   125    11.0   501.8    0.00 
 325   11:40   0.61   69.4    40    6.0   139     9.6   501.8    0.00 
 325   11:50   0.61   70.2    39    5.5   107     9.3   501.8    0.00 
 325   12:00   0.61   70.1    38    3.1   162     7.2   501.8    0.00 
 325   12:10   0.61   70.8    37    3.6   126     6.6   501.8    0.00 
 325   12:20   0.61   71.1    36    3.4   122     6.9   501.8    0.00 
 325   12:30   0.61   72.0    35    2.8   123     7.2   501.9    0.00 
 325   12:40   0.56   71.8    35    4.5   117     8.2   501.9    0.00 
 325   12:50   0.53   71.7    34    2.8   141     4.8   502.0    0.00 
 325   13:00   0.52   72.5    33    2.2   118     6.1   502.0    0.00 
 325   13:10   0.47   71.9    34    4.7    92    11.0   502.0    0.00 
 325   13:20   0.29   71.7    33    5.1   136     8.5   502.0    0.00 
 325   13:30   0.47   71.6    33    4.1   122     6.7   501.9    0.00 
 325   13:40   0.48   72.6    32    3.3   118     7.7   501.9    0.00 
 325   13:50   0.47   72.8    32    6.1   124    11.2   501.9    0.00 
 325   14:00   0.44   73.0    31    6.8   158    10.7   502.0    0.00 
 325   14:10   0.41   73.0    31    6.9   152     9.7   501.9    0.00 
 325   14:20   0.39   73.1    31    5.4   119     9.0   501.9    0.00 
 325   14:30   0.36   73.3    31    4.5   127     7.1   501.9    0.00 
 325   14:40   0.34   73.7    31    5.0   128     9.3   502.0    0.00 
 325   14:50   0.31   74.3    30    3.4   122     7.0   502.0    0.00 
 325   15:00   0.28   74.1    31    4.1    98     7.7   502.0    0.00 
 325   15:10   0.25   73.4    32    5.9   109     9.0   501.9    0.00 
 325   15:20   0.21   73.7    32    5.0   114     9.1   501.9    0.00 
 325   15:30   0.05   72.1    33    5.1    87     8.6   501.9    0.00 
 325   15:40   0.03   70.9    34    4.7   102     7.2   501.8    0.00 
 325   15:50   0.10   71.0    34    4.6   102     7.0   501.8    0.00 
 325   16:00   0.08   72.2    33    3.9    99     5.9   501.8    0.00 
 325   16:10   0.01   70.7    35    2.9   113     4.5   501.8    0.00 
 325   16:20   0.01   69.1    37    2.2   153     3.7   501.8    0.00 
 325   16:30   0.01   67.3    42    4.7   250     7.1   501.8    0.00 
 325   16:40   0.00   66.0    43    6.5   248     7.5   501.8    0.00 
 325   16:50   0.00   65.6    43    6.6   241    10.2   501.8    0.00 
 325   17:00   0.00   65.8    43    8.8   240    11.5   501.8    0.00 
 325   17:10   0.00   65.8    43    7.6   235    10.2   501.8    0.00 
 325   17:20   0.00   65.5    43    6.7   240     8.7   501.8    0.00 
 325   17:30   0.00   65.7    42    6.1   258     8.3   501.8    0.00 
 325   17:40   0.00   64.8    44    5.7   252     7.8   501.8    0.00 
 325   17:50   0.00   64.4    44    5.9   250     8.6   501.8    0.00 
 325   18:00   0.00   65.1    42    3.4   277     5.0   501.8    0.00 
 325   18:10   0.00   65.4    41    5.5   307     8.7   501.8    0.00 
 325   18:20   0.00   66.7    38    6.0   314    10.7   501.8    0.00 
 325   18:30   0.00   67.4    37    6.0   316    10.2   501.8    0.00 
 325   18:40   0.00   66.9    37    6.5   310    10.2   501.8    0.00 
 325   18:50   0.00   67.6    36    7.0   305    12.1   501.8    0.00 
 325   19:00   0.00   66.3    38    6.1   257     8.6   501.8    0.00 
 325   19:10   0.00   65.1    39    6.2   249     8.3   501.8    0.00 

Return to Anza Borrego Desert Research Center graphs page.


Western Regional Climate Center,wrcc@dri.edu